logo
Search for airport 
image banner adimage banner adimage banner ad
image banner ad

EI0005 - Brittas House

Located in , Ireland

ICAO - , IATA -

Data provided by Airmate  

General information

Coordinates: N52°37'20" W8°28'5"
Elevation is 135 feet MSL.
 
View others Airports in County Limerick

Operational data

Special qualification required
Current time UTC:
Current local time:
Weather at : EINN - Shannon ( 32 km )
METAR: EINN 130530Z 21010KT 9999 FEW012 BKN017 BKN023 12/10 Q1018 NOSIG
TAF: TAF EINN 130500Z 1306/1406 19010KT 9999 FEW010 BKN020 BECMG 1307/1309 23015KT TEMPO 1308/1310 23016G27KT 4000 SHRA BKN012 BECMG 1309/1311 27017G28KT BECMG 1318/1320 24010KT
View NOTAMs / SUP AIP / TFR affecting this airport [VIEW]
Communications frequencies: [VIEW]

Runways:

Airport contact information

Address: Ireland

Satellite view of EI0005